グアム の空港の天気 - METARとTAF

グアム国際空港 ( PGUM / GUM ) - グアム ハガニア
飛行場実況気象(Metar)
観測時間12/14 16:07 ChST (12/14 06:07 UTC)
風向・風速北東 10m/s 瞬間風速12m/s
視程10km以上
天気現象
全天の4割程度の雲 雲底高度 700m
気温30.6℃
湿度72%
気圧1010hPa
METARPGUM 140607Z 05019G24KT 10SM SCT023 31/25 A2983 RMK AO2 T03060250
過去の天気等 Google飛行場航空写真 Wunderground天気予報

過去48時間のMETAR

飛行場予報(TAF)
発表時間: 12/14 15:38 ChST (12/14 05:38 UTC)
予報対象時間: 14日16時 ChST ~ 15日22時 ChST
風向・風速東北東 8m/s
視程10km以上
天気現象周辺でしゅう雨
少しの雲 雲底高度 550m
全天の4割程度の雲 雲底高度 1220m
全天の4割程度の雲 雲底高度 4270m
14日18時 ChST から
風向・風速東北東 6m/s
視程10km以上
天気現象周辺でしゅう雨
全天の4割程度の雲 雲底高度 550m
全天の4割程度の雲 雲底高度 1220m
全天の8割程度の雲 雲底高度 4270m
15日8時 ChST から
風向・風速東北東 7m/s
視程10km以上
天気現象周辺でしゅう雨
少しの雲 雲底高度 610m
全天の4割程度の雲 雲底高度 1220m
全天の8割程度の雲 雲底高度 4270m
PGUM 140538Z 1406/1512 06015KT P6SM VCSH FEW018 SCT040 SCT140
FM140800 07011KT P6SM VCSH SCT018 SCT040 BKN140
FM142200 07014KT P6SM VCSH FEW020 SCT040 BKN140